Arcadia, MI

2:57 AM EDT on March 27, 2015 (GMT -0400)
Benzie | | Change Station
CLOSE
Current Station
Personal Weather Station
Location: Benzonia, MI
Elevation: 811 ft
Nearby Weather Stations

Elev 811 ft 44.54 °N, 86.11 °W | Updated 12 minutes ago

Overcast
Overcast
21.0 °F
Feels Like 21 °F
N
0.0
Wind Variable Wind from North
Gusts 0.0 mph

Today
High -- | Low -- °F
--% Chance of Precip.
Yesterday
High -- | Low -- °F
Precip. -- in
7:35 AM 8:05 PM
Waxing Crescent, 50% visible
Pressure 30.09 in
Visibility 10.0 miles
Clouds Scattered Clouds 3300 ft
Overcast 4200 ft
Windchill 21 °F
Dew Point 20 °F
Humidity 94%
Rainfall 0.00 in
Snow Depth Not available.
UV 0 out of 12
Pollen 2.40 out of 12
Air Quality Not available.
Flu Activity Not available.
METAR KFKS 270636Z AUTO 35006KT 10SM -SN SCT033 OVC042 M05/M12 A3009 RMK AO2 T10471119

More Conditions Fewer Conditions

Pressure 30.09 in
Visibility 10.0 miles
Clouds Scattered Clouds 3300 ft
Overcast 4200 ft
Windchill 21 °F
Dew Point 20 °F
Humidity 94%
Rainfall 0.00 in
Snow Depth Not available.
UV 0 out of 12
Pollen 2.40 out of 12
Air Quality Not available.
Flu Activity Not available.
METAR KFKS 270636Z AUTO 35006KT 10SM -SN SCT033 OVC042 M05/M12 A3009 RMK AO2 T10471119

More Conditions Fewer Conditions

Nowcast | as of 2:00 am EDT on March 27, 2015

At 3 am...partly cloudy. Chance of snow. Temperature 21. Southwest winds 14 mph. At 5 am...partly cloudy. Chance of snow. Temperature 19. South winds 15 mph. At 7 am...partly cloudy. Chance of snow. Temperature 17. South winds 14 mph.

×

10-Day Weather Forecast

Almanac

Astronomy

Mar. 27, 2015 Rise Set
Actual Time
Civil Twilight
Nautical Twilight
Astronomical Twilight
Moon
Length of Visible Light
Length of Day
Tomorrow will be .
, % of the Moon is Illuminated

Today's Extremes

State Highs State Lows

Community

WunderPhotos

Upload Photos

1,808,700 photos uploaded!

WunderBlogs® & News

Nearby

Air Quality

  Air Quality AQ Index Pollutant
Not available.

Snow Depth

Station Depth Elevation

Earthquake Activity

City Distance Mag. Time & Date
Minimum magnitude displayed is 2.5.

Coastal Water Temperatures

Place Temperature

Stations

Nearby Weather Stations

Station Location Temp. Windchill Dew Point Humidity Wind Precip. Elev Updated Type